Time;durP1;ratioP1;P1;durP2;ratioP2;P2;SDS_P1;SDS_P2;PMS_P1;PMS_P2;Temp;Humidity;BMP_temperature;BMP_pressure;BME280_temperature;BME280_humidity;BME280_pressure;Samples;Min_cycle;Max_cycle;Signal;HPM_P1;HPM_P2
2022/07/16 00:01:24;;;;;;;4.37;1.63;;;;;;;19.67;63.91;101173.44;4944782;28;119698;-85
2022/07/16 00:03:57;;;;;;;3.43;1.90;;;;;;;19.73;63.75;101197.22;4924667;28;119870;-86
2022/07/16 00:06:37;;;;;;;3.73;1.70;;;;;;;19.68;63.37;101202.78;4912809;28;120802;-84
2022/07/16 00:09:03;;;;;;;3.37;1.87;;;;;;;19.60;63.92;101189.34;4913447;28;119723;-86
2022/07/16 00:12:05;;;;;;;3.63;1.90;;;;;;;19.63;63.83;101196.69;4872716;28;119760;-85
2022/07/16 00:14:30;;;;;;;3.35;1.88;;;;;;;19.63;64.24;101193.91;4923027;28;121758;-85
2022/07/16 00:16:56;;;;;;;5.45;2.05;;;;;;;19.62;64.54;101192.38;4915368;28;120157;-86
2022/07/16 00:19:23;;;;;;;5.37;2.10;;;;;;;19.69;64.36;101198.75;4931673;28;121651;-86
2022/07/16 00:21:52;;;;;;;4.68;2.10;;;;;;;19.67;64.29;101192.91;4930707;28;122936;-85
2022/07/16 00:24:18;;;;;;;4.82;2.10;;;;;;;19.69;64.53;101190.41;4931818;28;119994;-85
2022/07/16 00:26:45;;;;;;;5.60;2.40;;;;;;;19.62;64.33;101183.28;4950723;28;120247;-85
2022/07/16 00:29:11;;;;;;;4.93;2.35;;;;;;;19.58;64.14;101175.16;4925787;28;119703;-86
2022/07/16 00:31:39;;;;;;;4.13;2.30;;;;;;;19.64;64.25;101183.56;4931634;28;121581;-85
2022/07/16 00:34:07;;;;;;;5.22;2.67;;;;;;;19.55;64.51;101170.59;4930748;28;120278;-85
2022/07/16 00:36:34;;;;;;;7.43;2.80;;;;;;;19.56;64.40;101171.38;4914822;28;120308;-85
2022/07/16 00:39:00;;;;;;;5.53;2.58;;;;;;;19.55;64.29;101172.63;4915558;28;122627;-85
2022/07/16 00:41:26;;;;;;;6.18;2.65;;;;;;;19.63;64.53;101182.75;4926788;28;123476;-84
2022/07/16 00:43:57;;;;;;;5.20;2.37;;;;;;;19.59;64.46;101176.69;4916125;28;120351;-85
2022/07/16 00:46:23;;;;;;;4.03;2.23;;;;;;;19.65;64.41;101189.88;4920516;28;120387;-85
2022/07/16 00:48:49;;;;;;;3.93;2.20;;;;;;;19.62;64.36;101175.69;4931178;28;119979;-85
2022/07/16 00:51:15;;;;;;;6.23;2.50;;;;;;;19.66;64.44;101180.25;4929365;28;122279;-84
2022/07/16 00:53:42;;;;;;;6.88;2.42;;;;;;;19.65;64.17;101178.75;4917884;28;120124;-84
2022/07/16 00:56:10;;;;;;;5.27;2.50;;;;;;;19.59;64.32;101182.25;4910092;28;119783;-84
2022/07/16 00:58:38;;;;;;;3.80;2.40;;;;;;;19.57;64.17;101178.44;4933142;28;120080;-85
2022/07/16 01:01:04;;;;;;;5.50;2.30;;;;;;;19.50;64.38;101174.09;4913040;28;123023;-84
2022/07/16 01:03:30;;;;;;;4.50;2.35;;;;;;;19.50;64.46;101174.09;4963961;28;119720;-84
2022/07/16 01:05:57;;;;;;;4.57;2.40;;;;;;;19.53;64.63;101177.91;4933972;28;121815;-83
2022/07/16 01:08:23;;;;;;;5.50;2.80;;;;;;;19.52;64.48;101176.38;4930796;28;121553;-83
2022/07/16 01:10:49;;;;;;;7.28;2.78;;;;;;;19.43;64.69;101162.72;4895372;28;122047;-83
2022/07/16 01:13:18;;;;;;;5.18;2.60;;;;;;;19.46;64.34;101168.03;4935955;28;119969;-83
2022/07/16 01:15:43;;;;;;;5.47;2.47;;;;;;;19.46;64.41;101168.03;4931626;28;119814;-84
2022/07/16 01:18:09;;;;;;;7.22;2.42;;;;;;;19.54;64.73;101183.00;4931129;28;122144;-83
2022/07/16 01:20:35;;;;;;;7.50;2.70;;;;;;;19.53;64.59;101172.34;4913414;28;122703;-84
2022/07/16 01:23:01;;;;;;;6.07;2.60;;;;;;;19.58;64.74;101185.53;4916239;28;119607;-84
2022/07/16 01:25:27;;;;;;;6.27;2.60;;;;;;;19.56;64.70;101186.03;4914313;28;122980;-83
2022/07/16 01:27:53;;;;;;;5.78;2.45;;;;;;;19.58;64.19;101194.66;4939694;28;120790;-83
2022/07/16 01:30:18;;;;;;;5.83;2.40;;;;;;;19.50;64.17;101195.59;4963733;28;119543;-84
2022/07/16 01:32:44;;;;;;;5.33;2.40;;;;;;;19.54;64.35;101194.13;4908372;28;123014;-83
2022/07/16 01:35:10;;;;;;;5.97;2.60;;;;;;;19.41;64.16;101171.56;4913881;28;119794;-84
2022/07/16 01:37:36;;;;;;;6.07;2.22;;;;;;;19.49;64.22;101189.28;4928138;28;121770;-83
2022/07/16 01:40:03;;;;;;;5.68;2.00;;;;;;;19.45;63.87;101185.22;4944688;28;123118;-83
2022/07/16 01:42:29;;;;;;;6.13;2.20;;;;;;;19.42;64.17;101180.66;4943048;28;120357;-84
2022/07/16 01:44:54;;;;;;;6.05;2.28;;;;;;;19.38;63.85;101183.66;4912966;28;122961;-84
2022/07/16 01:47:20;;;;;;;6.05;2.00;;;;;;;19.33;63.54;101178.84;4927170;28;121348;-84
2022/07/16 01:49:46;;;;;;;4.53;2.03;;;;;;;19.27;63.64;101166.94;4934022;28;120376;-84
2022/07/16 01:52:20;;;;;;;5.53;2.22;;;;;;;19.29;63.66;101173.53;4929467;28;122232;-83
2022/07/16 01:54:50;;;;;;;5.43;2.13;;;;;;;19.25;63.49;101166.69;4930580;28;120304;-84
2022/07/16 01:57:16;;;;;;;7.17;2.40;;;;;;;19.21;63.69;101168.94;4930044;28;120085;-83
2022/07/16 01:59:43;;;;;;;8.95;2.28;;;;;;;19.18;63.72;101173.47;4929978;28;122996;-83
2022/07/16 02:02:12;;;;;;;6.55;2.28;;;;;;;19.12;63.69;101174.69;4930033;28;119615;-84
2022/07/16 02:04:39;;;;;;;6.10;2.20;;;;;;;19.16;63.36;101187.09;4926580;28;122068;-84
2022/07/16 02:07:05;;;;;;;6.40;2.10;;;;;;;19.08;63.21;101177.72;4923662;28;120566;-84
2022/07/16 02:09:30;;;;;;;7.22;2.25;;;;;;;19.09;63.62;101186.81;4933446;28;120326;-85
2022/07/16 02:11:56;;;;;;;6.30;2.30;;;;;;;19.08;64.14;101190.84;4928583;28;120036;-83
2022/07/16 02:14:22;;;;;;;6.28;2.20;;;;;;;19.01;63.79;101183.75;4911810;28;120060;-84
2022/07/16 02:16:48;;;;;;;6.83;2.20;;;;;;;19.06;63.61;101187.81;4906991;28;121716;-84
2022/07/16 02:19:13;;;;;;;5.85;2.38;;;;;;;19.05;63.90;101180.72;4929533;28;123035;-84
2022/07/16 02:21:39;;;;;;;8.33;2.47;;;;;;;19.08;63.72;101193.63;4928595;28;121519;-84
2022/07/16 02:24:05;;;;;;;8.40;2.30;;;;;;;19.12;63.87;101202.50;4928980;28;122218;-84
2022/07/16 02:26:31;;;;;;;8.00;2.28;;;;;;;19.09;63.84;101197.94;4929134;28;119962;-84
2022/07/16 02:28:56;;;;;;;8.65;2.72;;;;;;;19.08;63.56;101199.94;4917463;28;120440;-84
2022/07/16 02:31:22;;;;;;;8.27;2.70;;;;;;;19.08;63.63;101205.50;4904976;28;122573;-84
2022/07/16 02:33:48;;;;;;;8.87;2.50;;;;;;;19.07;64.29;101204.00;4945702;28;119835;-84
2022/07/16 02:36:13;;;;;;;7.90;2.40;;;;;;;19.09;64.22;101209.81;4925224;28;119972;-84
2022/07/16 02:38:39;;;;;;;7.60;2.70;;;;;;;19.14;64.01;101222.22;4909401;28;122941;-83
2022/07/16 02:41:05;;;;;;;7.57;2.47;;;;;;;19.09;63.54;101209.06;4929344;28;120036;-84
2022/07/16 02:43:31;;;;;;;8.90;2.63;;;;;;;18.96;63.45;101203.94;4912624;28;122449;-83
2022/07/16 02:45:56;;;;;;;11.30;2.83;;;;;;;19.02;63.34;101210.28;4928433;28;121211;-83
2022/07/16 02:48:22;;;;;;;8.77;2.80;;;;;;;18.92;63.37;101209.69;4929070;28;119845;-83
2022/07/16 02:50:47;;;;;;;8.10;2.60;;;;;;;18.96;63.59;101221.38;4929053;28;122068;-83
2022/07/16 02:53:19;;;;;;;8.25;2.80;;;;;;;18.87;63.46;101218.78;4933862;28;120169;-84
2022/07/16 02:55:44;;;;;;;7.32;2.55;;;;;;;18.85;63.57;101221.28;4928131;28;124801;-84
2022/07/16 02:58:10;;;;;;;8.02;2.72;;;;;;;18.78;63.47;101216.19;4928444;28;123065;-84
2022/07/16 03:00:36;;;;;;;9.37;2.40;;;;;;;18.79;63.54;101219.72;4928060;28;120074;-83
2022/07/16 03:03:01;;;;;;;6.63;2.40;;;;;;;18.77;63.56;101225.03;4918745;28;122749;-84
2022/07/16 03:05:27;;;;;;;8.60;2.53;;;;;;;18.70;63.52;101224.22;4908992;28;123453;-84
2022/07/16 03:07:53;;;;;;;9.33;2.30;;;;;;;18.74;63.46;101231.56;4945762;28;120205;-84
2022/07/16 03:10:19;;;;;;;9.43;2.57;;;;;;;18.66;63.58;101225.69;4937574;28;122248;-83
2022/07/16 03:12:47;;;;;;;7.40;2.40;;;;;;;18.65;63.57;101229.72;4939423;28;123591;-83
2022/07/16 03:15:13;;;;;;;9.63;2.40;;;;;;;18.68;63.35;101248.19;4932691;28;120659;-83
2022/07/16 03:17:40;;;;;;;7.88;2.10;;;;;;;18.59;63.09;101242.78;4928205;28;120710;-83
2022/07/16 03:20:06;;;;;;;13.35;2.30;;;;;;;18.66;63.18;101247.91;4927605;28;119695;-84
2022/07/16 03:22:32;;;;;;;8.40;2.13;;;;;;;18.62;61.88;101250.13;4895978;28;122484;-84
2022/07/16 03:24:58;;;;;;;5.75;1.70;;;;;;;18.55;61.90;101248.56;4926468;28;120177;-83
2022/07/16 03:27:23;;;;;;;7.60;1.80;;;;;;;18.51;61.61;101255.59;4910672;28;119847;-83
2022/07/16 03:29:49;;;;;;;8.60;1.63;;;;;;;18.39;61.57;101241.59;4906627;28;122540;-83
2022/07/16 03:32:15;;;;;;;6.22;1.60;;;;;;;18.37;61.70;101246.13;4927193;28;120268;-83
2022/07/16 03:34:40;;;;;;;6.55;1.70;;;;;;;18.36;61.04;101253.69;4929265;28;120253;-83
2022/07/16 03:37:06;;;;;;;6.35;1.45;;;;;;;18.36;61.42;101264.03;4932056;28;121506;-84
2022/07/16 03:39:31;;;;;;;7.93;1.60;;;;;;;18.35;61.30;101273.63;4926568;28;120148;-84
2022/07/16 03:41:57;;;;;;;8.67;1.63;;;;;;;18.32;61.19;101275.38;4909319;28;121941;-83
2022/07/16 03:44:23;;;;;;;6.95;1.70;;;;;;;18.31;61.40;101279.41;4896034;28;123161;-83
2022/07/16 03:46:48;;;;;;;5.50;1.53;;;;;;;18.30;61.52;101277.13;4927629;28;120180;-83
2022/07/16 03:49:14;;;;;;;7.33;1.80;;;;;;;18.29;61.41;101275.59;4929321;28;119925;-84
2022/07/16 03:51:40;;;;;;;10.87;1.60;;;;;;;18.27;60.90;101272.56;4911451;28;122743;-84
2022/07/16 03:54:06;;;;;;;7.07;1.90;;;;;;;18.31;60.54;101284.97;4941583;28;120148;-83
2022/07/16 03:56:32;;;;;;;7.40;1.53;;;;;;;18.32;60.60;101286.50;4904213;28;122321;-84
2022/07/16 03:58:58;;;;;;;7.50;1.60;;;;;;;18.27;60.52;101276.09;4933168;28;119833;-84
2022/07/16 04:01:24;;;;;;;7.73;1.70;;;;;;;18.29;60.28;101290.25;4912471;28;119424;-83
2022/07/16 04:03:52;;;;;;;5.83;1.33;;;;;;;18.24;60.53;101285.41;4908459;28;123262;-84
2022/07/16 04:06:18;;;;;;;7.50;1.80;;;;;;;18.21;60.05;101286.34;4923472;28;120461;-84
2022/07/16 04:08:44;;;;;;;6.83;1.80;;;;;;;18.23;60.70;101292.22;4928000;28;119775;-84
2022/07/16 04:11:20;;;;;;;6.95;1.60;;;;;;;18.24;60.95;101296.50;4911163;28;120657;-83
2022/07/16 04:13:49;;;;;;;6.57;2.45;;;;;;;18.24;60.38;101287.41;4926339;28;120017;-84
2022/07/16 04:16:14;;;;;;;7.43;1.52;;;;;;;18.33;60.20;101292.81;4896093;28;120820;-83
2022/07/16 04:18:40;;;;;;;9.18;1.67;;;;;;;18.27;60.25;101284.41;4915690;28;123082;-83
2022/07/16 04:21:06;;;;;;;11.45;1.40;;;;;;;18.34;59.97;101289.53;4920970;28;119839;-82
2022/07/16 04:23:33;;;;;;;6.97;1.60;;;;;;;18.33;60.35;101293.56;4915451;28;122786;-84
2022/07/16 04:26:01;;;;;;;7.28;1.30;;;;;;;18.40;59.22;101301.47;4908809;28;120379;-83
2022/07/16 04:28:27;;;;;;;6.97;1.48;;;;;;;18.38;59.71;101283.75;4910465;28;121882;-83
2022/07/16 04:30:55;;;;;;;9.05;1.70;;;;;;;18.44;59.15;101303.25;4925882;28;120598;-83
2022/07/16 04:33:21;;;;;;;8.10;1.75;;;;;;;18.42;60.13;101300.97;4909307;28;121586;-84
2022/07/16 04:35:48;;;;;;;5.30;1.52;;;;;;;18.40;59.57;101295.91;4926393;28;122321;-84
2022/07/16 04:38:15;;;;;;;8.47;1.70;;;;;;;18.46;59.27;101311.88;4927768;28;120731;-83
2022/07/16 04:40:41;;;;;;;6.43;1.52;;;;;;;18.35;59.35;101293.84;4932275;28;119901;-83
2022/07/16 04:43:07;;;;;;;7.63;1.48;;;;;;;18.31;58.77;101284.97;4929926;28;124333;-84
2022/07/16 04:45:32;;;;;;;8.50;1.50;;;;;;;18.36;58.96;101295.34;4931416;28;119894;-83
2022/07/16 04:47:58;;;;;;;6.25;1.55;;;;;;;18.45;59.18;101310.31;4931979;28;119515;-84
2022/07/16 04:50:23;;;;;;;8.48;1.40;;;;;;;18.47;59.02;101305.06;4928086;28;120247;-83
2022/07/16 04:52:49;;;;;;;7.57;1.60;;;;;;;18.49;59.29;101310.91;4908210;28;120396;-83
2022/07/16 04:55:15;;;;;;;8.90;1.60;;;;;;;18.50;58.94;101313.19;4925337;28;121011;-82
2022/07/16 04:57:40;;;;;;;9.30;1.43;;;;;;;18.51;59.21;101308.38;4932424;28;119858;-84
2022/07/16 05:00:06;;;;;;;6.23;1.30;;;;;;;18.55;58.53;101308.94;4923459;28;119619;-84
2022/07/16 05:05:20;;;;;;;8.00;1.70;;;;;;;18.70;59.00;101323.50;4917075;28;119871;-83
2022/07/16 05:07:47;;;;;;;5.80;1.67;;;;;;;18.77;58.98;101325.06;4930779;28;120499;-84
2022/07/16 05:10:13;;;;;;;6.85;1.42;;;;;;;18.77;59.17;101331.41;4929116;28;122840;-83
2022/07/16 05:12:44;;;;;;;9.75;1.65;;;;;;;18.82;59.05;101330.69;4901339;28;119617;-83
2022/07/16 05:15:10;;;;;;;6.82;1.40;;;;;;;18.81;59.35;101328.41;4912961;28;122066;-83
2022/07/16 05:17:36;;;;;;;6.63;1.40;;;;;;;18.68;58.46;101312.84;4909410;28;123380;-83
2022/07/16 05:20:03;;;;;;;8.07;1.57;;;;;;;18.79;58.84;101339.25;4912249;28;120097;-82
2022/07/16 05:22:30;;;;;;;8.50;1.50;;;;;;;18.81;59.76;101340.28;4929070;28;120110;-83
2022/07/16 05:24:55;;;;;;;8.98;1.73;;;;;;;18.78;59.61;101337.72;4913874;28;122619;-83
2022/07/16 05:27:21;;;;;;;8.33;1.53;;;;;;;18.88;59.38;101347.41;4925656;28;120508;-83
2022/07/16 05:29:47;;;;;;;6.60;1.40;;;;;;;18.91;59.38;101347.16;4927266;28;122906;-83
2022/07/16 05:32:15;;;;;;;6.75;1.30;;;;;;;18.89;58.96;101335.03;4912247;28;120438;-83
2022/07/16 05:34:40;;;;;;;6.82;1.25;;;;;;;18.99;58.99;101337.16;4913514;28;121925;-82
2022/07/16 05:37:06;;;;;;;6.40;1.37;;;;;;;19.05;58.34;101333.66;4911844;28;124095;-82
2022/07/16 05:39:32;;;;;;;6.33;1.30;;;;;;;19.13;58.09;101337.50;4920496;28;119683;-82
2022/07/16 05:41:57;;;;;;;5.70;1.43;;;;;;;19.14;58.37;101342.56;4910324;28;121744;-82
2022/07/16 05:44:23;;;;;;;7.30;1.30;;;;;;;19.14;58.48;101336.22;4912827;28;122757;-83
2022/07/16 05:46:48;;;;;;;8.15;1.65;;;;;;;19.14;58.53;101350.13;4932836;28;119746;-83
2022/07/16 05:49:14;;;;;;;9.10;1.58;;;;;;;19.19;58.22;101350.19;4929858;28;120374;-82
2022/07/16 05:51:41;;;;;;;6.50;1.30;;;;;;;19.28;59.51;101343.69;4928844;28;121593;-82
2022/07/16 05:54:06;;;;;;;5.47;1.63;;;;;;;19.48;58.70;101343.56;4937975;28;122319;-82
2022/07/16 05:56:34;;;;;;;7.60;1.47;;;;;;;19.71;58.24;101354.84;4937682;28;121220;-82
2022/07/16 05:59:02;;;;;;;6.73;1.60;;;;;;;19.79;57.49;101358.69;4930129;28;120288;-82
2022/07/16 06:01:31;;;;;;;8.23;1.57;;;;;;;19.85;58.04;101370.59;4929515;28;121685;-82
2022/07/16 06:03:57;;;;;;;9.40;1.73;;;;;;;19.86;57.97;101366.56;4894020;28;122070;-82
2022/07/16 06:06:23;;;;;;;5.05;1.30;;;;;;;19.92;58.15;101367.38;4924846;28;119917;-81
2022/07/16 06:08:48;;;;;;;7.57;1.55;;;;;;;19.82;56.06;101352.13;4927473;28;120282;-82
2022/07/16 06:11:14;;;;;;;8.10;1.60;;;;;;;19.69;55.58;101360.16;4917897;28;119682;-80
2022/07/16 06:13:41;;;;;;;6.30;1.33;;;;;;;19.58;55.65;101366.41;4931276;28;119516;-81
2022/07/16 06:16:07;;;;;;;8.50;1.60;;;;;;;19.41;56.73;101366.28;4929087;28;123431;-82
2022/07/16 06:18:36;;;;;;;7.70;1.30;;;;;;;19.38;57.22;101370.03;4913188;28;119619;-82
2022/07/16 06:21:02;;;;;;;5.67;1.50;;;;;;;19.38;56.86;101372.06;4929081;28;121334;-82
2022/07/16 06:23:28;;;;;;;6.60;1.42;;;;;;;19.28;57.13;101368.72;4927029;28;123213;-82
2022/07/16 06:25:54;;;;;;;5.63;1.33;;;;;;;19.22;57.60;101365.13;4930099;28;119675;-82
2022/07/16 06:28:19;;;;;;;7.77;1.80;;;;;;;19.27;57.72;101369.97;4915883;28;122789;-82
2022/07/16 06:30:45;;;;;;;10.47;1.90;;;;;;;19.34;57.53;101369.50;4927491;28;120091;-82
2022/07/16 06:33:11;;;;;;;8.30;1.63;;;;;;;19.43;58.74;101382.50;4926640;28;121974;-82
2022/07/16 06:35:36;;;;;;;7.00;1.40;;;;;;;19.48;57.35;101382.53;4912115;28;119977;-82
2022/07/16 06:38:03;;;;;;;7.50;1.50;;;;;;;19.51;57.01;101387.09;4885595;28;120072;-82
2022/07/16 06:40:29;;;;;;;7.63;1.48;;;;;;;19.49;57.10;101384.03;4927716;28;120194;-82
2022/07/16 06:42:55;;;;;;;7.90;1.77;;;;;;;19.54;57.00;101386.13;4929201;28;120600;-81
2022/07/16 06:45:21;;;;;;;8.33;1.53;;;;;;;19.63;57.43;101387.94;4913571;28;119973;-82
2022/07/16 06:47:47;;;;;;;7.10;1.52;;;;;;;19.69;57.26;101390.78;4912952;28;120165;-82
2022/07/16 06:50:13;;;;;;;9.55;1.85;;;;;;;19.76;55.78;101390.31;4931039;28;123781;-82
2022/07/16 06:52:39;;;;;;;8.45;1.42;;;;;;;19.89;55.29;101399.75;4914351;28;121620;-81
2022/07/16 06:55:08;;;;;;;7.85;1.30;;;;;;;19.90;56.06;101379.00;4908539;28;122884;-82
2022/07/16 06:57:33;;;;;;;7.55;1.70;;;;;;;20.01;55.44;101388.66;4912046;28;120083;-82
2022/07/16 06:59:59;;;;;;;5.50;1.50;;;;;;;20.10;54.97;101397.56;4930079;28;119626;-82
2022/07/16 07:02:25;;;;;;;8.05;1.80;;;;;;;20.20;54.64;101400.91;4910997;28;121104;-81
2022/07/16 07:04:51;;;;;;;9.05;1.73;;;;;;;20.14;53.35;101398.13;4915371;28;120015;-82
2022/07/16 07:07:16;;;;;;;8.40;1.60;;;;;;;20.24;54.17;101395.84;4883413;28;121976;-82
2022/07/16 07:09:42;;;;;;;8.73;1.55;;;;;;;20.29;53.36;101408.28;4898257;28;122927;-82
2022/07/16 07:12:08;;;;;;;6.57;1.42;;;;;;;20.23;52.22;101417.38;4931574;28;120226;-82
2022/07/16 07:14:33;;;;;;;7.10;1.48;;;;;;;20.18;54.24;101409.00;4910824;28;119906;-82
2022/07/16 07:16:59;;;;;;;7.82;1.20;;;;;;;20.19;51.44;101421.69;4909513;28;120216;-82
2022/07/16 07:19:51;;;;;;;6.10;1.35;;;;;;;20.17;53.61;101397.09;4843721;28;120102;-82
2022/07/16 07:22:31;;;;;;;6.85;1.40;;;;;;;20.29;51.46;101422.22;4847596;28;120663;-83
2022/07/16 07:24:56;;;;;;;8.53;1.47;;;;;;;20.26;50.83;101421.19;4888101;28;119827;-82
2022/07/16 07:27:22;;;;;;;6.68;1.30;;;;;;;20.26;51.82;101423.97;4928284;28;119592;-81
2022/07/16 07:29:48;;;;;;;7.40;1.80;;;;;;;20.37;51.44;101434.41;4912377;28;123106;-81
2022/07/16 07:32:17;;;;;;;8.18;1.65;;;;;;;20.42;50.54;101440.03;4912216;28;119842;-81
2022/07/16 07:35:01;;;;;;;7.32;1.45;;;;;;;20.47;51.15;101447.66;4914790;28;120219;-81
2022/07/16 07:37:27;;;;;;;7.72;1.45;;;;;;;20.36;52.18;101435.69;4922490;28;120239;-82
2022/07/16 07:39:52;;;;;;;8.27;1.50;;;;;;;20.36;52.00;101452.41;4928940;28;120599;-81
2022/07/16 07:42:18;;;;;;;7.40;1.47;;;;;;;20.29;52.29;101448.03;4926186;28;120219;-82
2022/07/16 07:44:44;;;;;;;8.80;1.90;;;;;;;20.29;53.00;101450.06;4904576;28;119755;-82
2022/07/16 07:47:09;;;;;;;5.20;1.43;;;;;;;20.31;52.37;101448.31;4929133;28;119613;-82
2022/07/16 07:49:35;;;;;;;5.40;1.20;;;;;;;20.32;51.35;101446.28;4926765;28;121392;-81
2022/07/16 07:52:01;;;;;;;7.82;1.50;;;;;;;20.30;50.69;101446.03;4907727;28;119858;-81
2022/07/16 07:54:27;;;;;;;5.65;1.10;;;;;;;20.32;50.66;101451.84;4925216;28;120377;-81
2022/07/16 07:56:52;;;;;;;7.80;1.55;;;;;;;20.45;49.92;101460.56;4912954;28;122810;-82
2022/07/16 07:59:18;;;;;;;7.32;1.45;;;;;;;20.48;48.60;101460.31;4911484;28;121877;-81
2022/07/16 08:01:44;;;;;;;5.75;1.00;;;;;;;20.68;49.42;101448.22;4911424;28;120809;-80
2022/07/16 08:04:09;;;;;;;7.20;1.40;;;;;;;20.82;47.80;101457.66;4925639;28;120349;-81
2022/07/16 08:06:36;;;;;;;5.75;1.50;;;;;;;21.00;48.80;101459.19;4910873;28;121906;-81
2022/07/16 08:09:02;;;;;;;8.63;1.40;;;;;;;21.27;48.14;101449.34;4928075;28;120303;-80
2022/07/16 08:11:31;;;;;;;6.57;1.20;;;;;;;21.50;49.96;101444.53;4924099;28;120236;-80
2022/07/16 08:13:56;;;;;;;6.40;1.40;;;;;;;21.84;47.12;101451.63;4926933;28;120182;-81
2022/07/16 08:16:22;;;;;;;5.68;1.38;;;;;;;21.95;45.54;101457.16;4927201;28;120560;-81
2022/07/16 08:18:48;;;;;;;8.73;1.80;;;;;;;22.02;46.75;101451.09;4927996;28;120228;-81
2022/07/16 08:21:14;;;;;;;6.38;1.05;;;;;;;22.09;45.65;101454.63;4917659;28;121420;-81
2022/07/16 08:26:24;;;;;;;9.57;1.80;;;;;;;22.22;45.39;101457.63;4945201;28;120194;-81
2022/07/16 08:28:50;;;;;;;6.53;1.40;;;;;;;22.24;45.19;101474.66;4910934;28;123191;-81
2022/07/16 08:31:15;;;;;;;6.10;1.17;;;;;;;22.19;46.00;101481.78;4940832;28;119776;-80
2022/07/16 08:33:44;;;;;;;5.45;1.33;;;;;;;22.13;44.64;101467.06;4940852;28;122189;-80
2022/07/16 08:36:09;;;;;;;5.70;1.55;;;;;;;22.25;44.66;101482.53;4928130;28;122777;-81
2022/07/16 08:38:35;;;;;;;7.13;1.60;;;;;;;22.36;43.97;101478.94;4940388;28;121927;-81
2022/07/16 08:41:02;;;;;;;5.87;1.20;;;;;;;22.41;44.61;101492.13;4932769;28;121299;-80
2022/07/16 08:43:30;;;;;;;5.63;1.35;;;;;;;22.42;44.32;101488.06;4938296;28;120812;-81
2022/07/16 08:45:56;;;;;;;6.43;1.47;;;;;;;22.40;44.16;101482.22;4934527;28;124934;-79
2022/07/16 08:48:23;;;;;;;9.47;1.50;;;;;;;22.19;43.95;101481.00;4936106;28;121030;-79
2022/07/16 08:50:51;;;;;;;9.07;1.85;;;;;;;22.23;46.45;101492.69;4917926;28;120159;-80
2022/07/16 08:53:22;;;;;;;8.53;2.00;;;;;;;22.40;46.48;101489.84;4933990;28;120979;-81
2022/07/16 08:55:49;;;;;;;5.73;1.30;;;;;;;22.56;46.65;101486.22;4939368;28;120565;-81
2022/07/16 08:58:17;;;;;;;5.43;1.40;;;;;;;22.68;45.58;101496.06;4952701;28;120235;-80
2022/07/16 09:00:46;;;;;;;8.73;1.77;;;;;;;22.76;44.86;101501.91;4926444;28;122676;-81
2022/07/16 09:03:15;;;;;;;7.20;1.60;;;;;;;22.76;44.21;101496.31;4938812;28;120702;-81
2022/07/16 09:05:41;;;;;;;9.03;1.60;;;;;;;22.75;45.73;101517.94;4924803;28;122469;-81
2022/07/16 09:08:08;;;;;;;9.50;1.60;;;;;;;22.70;44.82;101512.34;4919944;28;122688;-81
2022/07/16 09:10:35;;;;;;;5.93;1.25;;;;;;;22.70;43.61;101531.91;4917735;28;120809;-82
2022/07/16 09:13:01;;;;;;;8.40;1.47;;;;;;;22.76;43.86;101524.28;4930707;28;120896;-80
2022/07/16 09:15:31;;;;;;;6.15;1.40;;;;;;;22.84;43.23;101516.88;4892042;28;124774;-81
2022/07/16 09:18:14;;;;;;;4.28;1.10;;;;;;;22.90;42.86;101523.97;4938447;28;120232;-81
2022/07/16 09:20:44;;;;;;;7.00;1.60;;;;;;;22.93;44.45;101506.13;4921369;28;121002;-81
2022/07/16 09:23:37;;;;;;;6.88;1.60;;;;;;;23.19;47.01;101522.56;4923206;28;121267;-80
2022/07/16 09:26:08;;;;;;;5.18;1.30;;;;;;;23.36;43.64;101539.22;4938144;28;119985;-80
2022/07/16 09:28:43;;;;;;;8.00;1.52;;;;;;;23.12;42.58;101533.50;4925843;28;120236;-81
2022/07/16 09:31:10;;;;;;;5.97;1.50;;;;;;;22.90;43.22;101528.78;4941548;28;119977;-81
2022/07/16 09:33:36;;;;;;;5.80;1.40;;;;;;;22.92;44.12;101523.44;4940926;28;120532;-80
2022/07/16 09:36:20;;;;;;;6.43;1.60;;;;;;;23.10;43.25;101545.22;4923074;28;123555;-81
2022/07/16 09:38:51;;;;;;;7.25;1.73;;;;;;;23.24;43.42;101543.38;4943032;28;121250;-82
2022/07/16 09:41:18;;;;;;;6.73;1.40;;;;;;;23.28;41.60;101547.41;4926397;28;122747;-79
2022/07/16 09:43:45;;;;;;;5.47;1.33;;;;;;;23.32;41.37;101540.78;4933801;28;121217;-80
2022/07/16 09:46:23;;;;;;;7.57;1.67;;;;;;;23.37;42.65;101551.94;4943673;28;120652;-80
2022/07/16 09:48:50;;;;;;;6.13;1.40;;;;;;;23.27;41.52;101575.94;4933085;28;121803;-81
2022/07/16 09:51:25;;;;;;;5.22;1.33;;;;;;;23.09;41.89;101557.69;4936683;28;120364;-81
2022/07/16 09:53:53;;;;;;;9.17;1.77;;;;;;;22.92;42.53;101557.03;4917620;28;121225;-82
2022/07/16 09:56:27;;;;;;;6.35;1.42;;;;;;;22.78;42.67;101564.44;4922111;28;121750;-82
2022/07/16 09:58:58;;;;;;;6.20;1.50;;;;;;;22.77;42.82;101578.94;4937179;28;120891;-82
2022/07/16 10:01:24;;;;;;;6.03;1.50;;;;;;;22.83;44.03;101566.47;4940041;28;119768;-81
2022/07/16 10:03:51;;;;;;;4.97;1.27;;;;;;;22.95;43.02;101575.59;4920301;28;120502;-81
2022/07/16 10:06:18;;;;;;;7.20;1.40;;;;;;;23.10;43.45;101573.22;4901065;28;121054;-81
2022/07/16 10:08:47;;;;;;;6.28;1.50;;;;;;;23.16;43.20;101587.16;4936626;28;121766;-81
2022/07/16 10:11:13;;;;;;;4.45;1.30;;;;;;;23.19;42.22;101570.13;4941615;28;120354;-82
2022/07/16 10:13:44;;;;;;;6.30;1.37;;;;;;;23.21;41.30;101566.81;4938207;28;122826;-81
2022/07/16 10:16:11;;;;;;;5.18;1.20;;;;;;;23.31;42.14;101575.66;4920150;28;123081;-81
2022/07/16 10:18:46;;;;;;;8.15;1.85;;;;;;;23.33;41.63;101576.66;4919931;28;121457;-81
2022/07/16 10:21:20;;;;;;;6.93;1.58;;;;;;;23.32;42.03;101577.16;4940433;28;120141;-81
2022/07/16 10:24:03;;;;;;;4.60;1.20;;;;;;;23.36;41.67;101591.63;4932407;28;120515;-82
2022/07/16 10:26:29;;;;;;;5.05;1.38;;;;;;;23.45;40.85;101602.53;4924987;28;120275;-81
2022/07/16 10:28:55;;;;;;;5.73;1.50;;;;;;;23.44;40.71;101589.81;4926710;28;121476;-81
2022/07/16 10:34:39;;;;;;;7.77;1.40;;;;;;;23.30;41.22;101600.06;4912832;28;122408;-81
2022/07/16 10:37:30;;;;;;;5.85;1.30;;;;;;;23.24;41.23;101625.31;4939286;28;123827;-82
2022/07/16 10:40:04;;;;;;;7.38;1.50;;;;;;;23.09;41.58;101624.88;4920369;28;120517;-82
2022/07/16 10:42:30;;;;;;;7.60;1.50;;;;;;;23.06;42.83;101616.75;4938665;28;120823;-81
2022/07/16 10:44:58;;;;;;;5.97;1.30;;;;;;;23.10;41.39;101612.38;4916884;28;123248;-83
2022/07/16 10:47:42;;;;;;;8.50;1.65;;;;;;;23.07;40.63;101630.22;4909053;28;120231;-83
2022/07/16 10:50:13;;;;;;;5.45;1.40;;;;;;;23.08;40.86;101634.53;4944966;28;121113;-82
2022/07/16 10:52:44;;;;;;;8.47;1.37;;;;;;;23.06;40.79;101645.47;4946141;28;120496;-82
2022/07/16 10:55:10;;;;;;;6.90;1.30;;;;;;;23.04;40.77;101636.84;4941669;28;120165;-83
2022/07/16 10:57:43;;;;;;;5.90;1.30;;;;;;;23.05;41.60;101638.38;4942196;28;123637;-84
2022/07/16 11:00:09;;;;;;;5.50;1.50;;;;;;;23.00;42.71;101636.34;4932515;28;120889;-82
2022/07/16 11:02:40;;;;;;;5.57;1.33;;;;;;;23.10;41.31;101651.56;4948929;28;120197;-81
2022/07/16 11:05:06;;;;;;;5.65;1.20;;;;;;;23.18;42.89;101652.53;4918342;28;122315;-83
2022/07/16 11:07:35;;;;;;;9.25;1.40;;;;;;;23.18;42.06;101646.94;4920799;28;121232;-81
2022/07/16 11:10:01;;;;;;;6.93;1.40;;;;;;;23.17;42.00;101665.00;4918168;28;125139;-82
2022/07/16 11:12:31;;;;;;;5.43;1.20;;;;;;;23.12;42.53;101654.59;4933666;28;122345;-82
2022/07/16 11:14:58;;;;;;;5.90;1.60;;;;;;;23.17;42.67;101651.03;4933667;28;120341;-83
2022/07/16 11:17:29;;;;;;;7.90;1.58;;;;;;;23.15;43.20;101652.81;4921396;28;124584;-83
2022/07/16 11:20:00;;;;;;;8.82;1.75;;;;;;;23.17;42.81;101665.00;4923871;28;120614;-82
2022/07/16 11:22:29;;;;;;;5.72;1.42;;;;;;;23.23;42.67;101659.41;4937058;28;119874;-82
2022/07/16 11:24:58;;;;;;;6.20;1.60;;;;;;;23.28;43.22;101653.03;4920847;28;124822;-82
2022/07/16 11:27:32;;;;;;;7.18;1.75;;;;;;;23.36;42.96;101673.59;4929505;28;120867;-82